Time;durP1;ratioP1;P1;durP2;ratioP2;P2;SDS_P1;SDS_P2;PMS_P1;PMS_P2;Temp;Humidity;BMP_temperature;BMP_pressure;BME280_temperature;BME280_humidity;BME280_pressure;Samples;Min_cycle;Max_cycle;Signal;HPM_P1;HPM_P2
2023/06/07 00:01:56;;;;;;;13.75;6.63;;;;;;;9.66;100.00;102323.22;5093740;28;20028;-83
2023/06/07 00:04:21;;;;;;;14.02;7.10;;;;;;;9.67;100.00;102321.41;5075895;28;20044;-83
2023/06/07 00:06:47;;;;;;;13.95;6.82;;;;;;;9.67;100.00;102316.09;5093876;28;20035;-85
2023/06/07 00:09:13;;;;;;;13.93;7.13;;;;;;;9.68;100.00;102329.28;5075700;28;20112;-84
2023/06/07 00:11:39;;;;;;;13.45;7.25;;;;;;;9.69;100.00;102319.53;5093511;28;20035;-84
2023/06/07 00:14:05;;;;;;;16.15;6.43;;;;;;;9.69;100.00;102317.72;5076175;28;20456;-84
2023/06/07 00:16:31;;;;;;;17.05;6.85;;;;;;;9.69;100.00;102319.53;5076270;28;20081;-84
2023/06/07 00:18:57;;;;;;;16.70;7.03;;;;;;;9.71;100.00;102320.25;5093734;28;20035;-83
2023/06/07 00:21:23;;;;;;;14.48;7.15;;;;;;;9.72;100.00;102319.31;5093657;28;20032;-83
2023/06/07 00:23:48;;;;;;;20.20;7.53;;;;;;;9.74;100.00;102316.56;5093932;28;20038;-85
2023/06/07 00:26:14;;;;;;;13.20;6.90;;;;;;;9.74;100.00;102328.03;5094214;28;20036;-83
2023/06/07 00:28:40;;;;;;;14.63;7.22;;;;;;;9.74;100.00;102325.38;5093782;28;20432;-82
2023/06/07 00:31:06;;;;;;;12.25;6.78;;;;;;;9.73;100.00;102323.66;5093959;28;20041;-82
2023/06/07 00:33:31;;;;;;;12.88;6.80;;;;;;;9.73;100.00;102317.50;5093910;28;20103;-82
2023/06/07 00:35:57;;;;;;;13.02;6.93;;;;;;;9.69;100.00;102316.88;5075760;28;20103;-84
2023/06/07 00:38:23;;;;;;;12.45;6.82;;;;;;;9.66;100.00;102317.06;5095015;28;20463;-83
2023/06/07 00:40:49;;;;;;;22.30;7.15;;;;;;;9.65;100.00;102315.34;5076705;28;20353;-82
2023/06/07 00:43:14;;;;;;;14.52;7.25;;;;;;;9.64;100.00;102317.16;5094341;28;20137;-83
2023/06/07 00:45:39;;;;;;;14.10;6.80;;;;;;;9.60;100.00;102312.09;5076265;28;20043;-82
2023/06/07 00:48:05;;;;;;;14.25;6.85;;;;;;;9.55;100.00;102312.41;5094071;28;20089;-82
2023/06/07 00:50:30;;;;;;;15.73;7.07;;;;;;;9.53;100.00;102307.19;5093997;28;20100;-82
2023/06/07 00:52:56;;;;;;;14.07;7.20;;;;;;;9.52;100.00;102312.59;5093679;28;20028;-83
2023/06/07 00:55:22;;;;;;;15.88;7.07;;;;;;;9.47;100.00;102312.03;5093376;28;20069;-82
2023/06/07 00:57:47;;;;;;;15.77;6.85;;;;;;;9.46;100.00;102308.50;5058347;28;20472;-83
2023/06/07 01:00:13;;;;;;;11.27;6.97;;;;;;;9.44;100.00;102307.75;5075247;28;20076;-83
2023/06/07 01:02:45;;;;;;;17.05;7.15;;;;;;;9.42;100.00;102309.69;5075221;28;20039;-83
2023/06/07 01:05:12;;;;;;;16.25;6.68;;;;;;;9.43;100.00;102308.69;5093816;28;20032;-83
2023/06/07 01:07:37;;;;;;;13.70;7.10;;;;;;;9.41;100.00;102312.44;5094670;28;20089;-83
2023/06/07 01:10:05;;;;;;;12.27;6.90;;;;;;;9.39;100.00;102311.66;5093843;28;20380;-83
2023/06/07 01:12:34;;;;;;;17.27;7.20;;;;;;;9.37;100.00;102311.75;5097312;28;20165;-83
2023/06/07 01:15:00;;;;;;;13.55;6.43;;;;;;;9.38;100.00;102318.78;5096686;28;20410;-83
2023/06/07 01:17:28;;;;;;;14.23;6.60;;;;;;;9.38;100.00;102315.28;5097180;28;20121;-83
2023/06/07 01:19:57;;;;;;;17.58;7.80;;;;;;;9.38;100.00;102313.47;5097085;28;20043;-83
2023/06/07 01:22:27;;;;;;;16.45;6.70;;;;;;;9.38;100.00;102317.94;5096998;28;20028;-83
2023/06/07 01:24:56;;;;;;;16.58;7.45;;;;;;;9.37;100.00;102317.06;5097117;28;20044;-83
2023/06/07 01:27:27;;;;;;;16.77;7.15;;;;;;;9.38;100.00;102315.28;5096958;28;20111;-82
2023/06/07 01:29:56;;;;;;;11.17;7.00;;;;;;;9.40;100.00;102316.03;5097605;28;20039;-82
2023/06/07 01:32:22;;;;;;;18.98;6.82;;;;;;;9.40;100.00;102318.69;5097391;28;20024;-83
2023/06/07 01:34:49;;;;;;;16.38;7.18;;;;;;;9.40;100.00;102316.88;5097725;28;20032;-83
2023/06/07 01:37:14;;;;;;;12.38;7.35;;;;;;;9.40;100.00;102318.69;5098536;28;20028;-83
2023/06/07 01:39:41;;;;;;;16.70;6.60;;;;;;;9.40;100.00;102314.22;5103410;28;20111;-83
2023/06/07 01:42:09;;;;;;;14.57;6.40;;;;;;;9.40;100.00;102314.22;5106163;28;20050;-82
2023/06/07 01:44:37;;;;;;;20.83;7.70;;;;;;;9.40;100.00;102306.25;5101238;28;20028;-82
2023/06/07 01:47:03;;;;;;;20.05;7.43;;;;;;;9.39;100.00;102309.88;5096686;28;20119;-83
2023/06/07 01:49:28;;;;;;;12.60;6.20;;;;;;;9.38;100.00;102302.84;5078539;28;20454;-83
2023/06/07 01:51:54;;;;;;;14.95;6.63;;;;;;;9.36;100.00;102304.75;5077715;28;20032;-82
2023/06/07 01:54:19;;;;;;;17.48;7.40;;;;;;;9.34;100.00;102303.97;5096524;28;20450;-83
2023/06/07 01:57:08;;;;;;;17.83;6.78;;;;;;;9.32;100.00;102297.91;5096084;28;20051;-84
2023/06/07 02:00:02;;;;;;;10.48;6.15;;;;;;;9.29;100.00;102296.28;5095860;28;20039;-84
2023/06/07 02:02:36;;;;;;;15.23;6.38;;;;;;;9.27;100.00;102302.63;5096390;28;20056;-85
2023/06/07 02:05:06;;;;;;;14.45;6.60;;;;;;;9.24;100.00;102302.81;5096906;28;20035;-85
2023/06/07 02:07:40;;;;;;;14.23;6.90;;;;;;;9.23;100.00;102301.13;5096157;28;20032;-83
2023/06/07 02:10:08;;;;;;;15.43;7.45;;;;;;;9.20;100.00;102310.16;5098150;28;20024;-83
2023/06/07 02:12:34;;;;;;;16.20;6.45;;;;;;;9.21;100.00;102303.03;5098385;28;20472;-83
2023/06/07 02:15:00;;;;;;;16.60;6.80;;;;;;;9.21;100.00;102303.91;5096202;28;20119;-83
2023/06/07 02:17:25;;;;;;;18.67;6.57;;;;;;;9.26;100.00;102309.75;5095934;28;20024;-84
2023/06/07 02:19:51;;;;;;;21.45;6.63;;;;;;;9.28;100.00;102304.34;5077926;28;20039;-83
2023/06/07 02:22:16;;;;;;;17.10;6.35;;;;;;;9.32;100.00;102308.53;5095001;28;20499;-82
2023/06/07 02:24:42;;;;;;;12.73;6.25;;;;;;;9.34;100.00;102304.84;5095828;28;20111;-84
2023/06/07 02:27:08;;;;;;;12.18;6.35;;;;;;;9.40;100.00;102308.06;5095508;28;20145;-84
2023/06/07 02:29:34;;;;;;;17.58;6.65;;;;;;;9.46;100.00;102307.66;5096359;28;20556;-83
2023/06/07 02:32:00;;;;;;;15.52;5.88;;;;;;;9.51;100.00;102302.94;5096415;28;20051;-83
2023/06/07 02:34:26;;;;;;;18.95;6.63;;;;;;;9.54;100.00;102300.09;5095808;28;20039;-83
2023/06/07 02:36:52;;;;;;;12.88;6.07;;;;;;;9.60;100.00;102310.31;5077768;28;20028;-84
2023/06/07 02:39:18;;;;;;;18.23;6.18;;;;;;;9.63;100.00;102302.16;5095563;28;20113;-84
2023/06/07 02:41:43;;;;;;;16.05;6.78;;;;;;;9.68;100.00;102301.84;5095655;28;20418;-83
2023/06/07 02:44:09;;;;;;;15.77;6.00;;;;;;;9.71;100.00;102296.34;5095525;28;20040;-84
2023/06/07 02:46:34;;;;;;;18.65;6.20;;;;;;;9.74;100.00;102290.00;5078453;28;20036;-84
2023/06/07 02:49:00;;;;;;;15.23;5.97;;;;;;;9.77;100.00;102287.97;5077443;28;20028;-83
2023/06/07 02:51:25;;;;;;;14.98;6.20;;;;;;;9.80;100.00;102284.28;5095279;28;20032;-83
2023/06/07 02:53:51;;;;;;;14.90;6.43;;;;;;;9.81;100.00;102297.47;5095102;28;20104;-83
2023/06/07 02:56:16;;;;;;;13.15;6.53;;;;;;;9.80;100.00;102287.78;5059989;28;20028;-82
2023/06/07 02:58:42;;;;;;;19.67;6.90;;;;;;;9.82;100.00;102282.38;5095019;28;20055;-81
2023/06/07 03:01:08;;;;;;;18.38;6.57;;;;;;;9.83;100.00;102298.22;5095191;28;20050;-85
2023/06/07 03:03:37;;;;;;;16.00;5.93;;;;;;;9.85;100.00;102290.13;5095677;28;20064;-83
2023/06/07 03:06:04;;;;;;;13.65;6.00;;;;;;;9.85;100.00;102295.44;5076879;28;20032;-83
2023/06/07 03:08:30;;;;;;;16.38;6.10;;;;;;;9.84;100.00;102285.78;5077000;28;20424;-82
2023/06/07 03:10:56;;;;;;;16.33;5.82;;;;;;;9.84;100.00;102291.94;5094492;28;20145;-83
2023/06/07 03:13:21;;;;;;;20.67;6.45;;;;;;;9.81;100.00;102278.84;5094565;28;20028;-82
2023/06/07 03:15:47;;;;;;;18.48;6.13;;;;;;;9.83;100.00;102287.56;5094443;28;20115;-82
2023/06/07 03:18:15;;;;;;;16.60;6.72;;;;;;;9.82;100.00;102288.56;5095130;28;20031;-84
2023/06/07 03:20:41;;;;;;;23.73;7.22;;;;;;;9.84;100.00;102294.59;5095663;28;20454;-81
2023/06/07 03:23:07;;;;;;;21.38;7.13;;;;;;;9.85;100.00;102287.47;5095116;28;20032;-82
2023/06/07 03:25:33;;;;;;;19.42;6.88;;;;;;;9.86;100.00;102290.03;5095051;28;20395;-82
2023/06/07 03:27:58;;;;;;;20.35;6.90;;;;;;;9.89;100.00;102286.34;5094781;28;20096;-82
2023/06/07 03:30:24;;;;;;;17.40;6.22;;;;;;;9.94;100.00;102292.22;5094024;28;20059;-83
2023/06/07 03:32:50;;;;;;;27.90;7.35;;;;;;;9.97;100.00;102283.16;5094265;28;20035;-83
2023/06/07 03:35:16;;;;;;;19.58;7.13;;;;;;;9.99;100.00;102291.94;5094235;28;20032;-84
2023/06/07 03:37:42;;;;;;;19.20;6.90;;;;;;;10.00;100.00;102281.19;5076043;28;20028;-83
2023/06/07 03:40:08;;;;;;;15.32;6.35;;;;;;;10.03;100.00;102286.31;5094903;28;20452;-82
2023/06/07 03:42:34;;;;;;;20.67;7.22;;;;;;;10.04;100.00;102290.66;5094333;28;20032;-83
2023/06/07 03:44:59;;;;;;;18.67;7.35;;;;;;;10.09;100.00;102295.69;5094560;28;20461;-83
2023/06/07 03:47:24;;;;;;;19.30;6.35;;;;;;;10.15;100.00;102295.28;5086603;28;20502;-83
2023/06/07 03:49:50;;;;;;;22.63;6.50;;;;;;;10.18;100.00;102295.09;5096255;28;20361;-83
2023/06/07 03:52:15;;;;;;;19.30;7.03;;;;;;;10.20;100.00;102287.84;5076881;28;20530;-84
2023/06/07 03:54:41;;;;;;;16.05;6.35;;;;;;;10.21;100.00;102299.31;5095273;28;20051;-82
2023/06/07 03:57:07;;;;;;;21.65;6.93;;;;;;;10.23;100.00;102290.28;5094935;28;20085;-83
2023/06/07 03:59:32;;;;;;;16.42;6.78;;;;;;;10.25;100.00;102292.84;5093266;28;20404;-81
2023/06/07 04:01:58;;;;;;;21.13;6.15;;;;;;;10.27;100.00;102292.75;5094379;28;20059;-82
2023/06/07 04:04:27;;;;;;;17.10;6.90;;;;;;;10.28;100.00;102287.31;5094133;28;20028;-82
2023/06/07 04:06:54;;;;;;;17.95;7.03;;;;;;;10.29;100.00;102291.72;5094775;28;20032;-82
2023/06/07 04:09:19;;;;;;;17.70;6.90;;;;;;;10.31;100.00;102291.59;5094204;28;20096;-83
2023/06/07 04:11:45;;;;;;;17.08;6.82;;;;;;;10.33;100.00;102289.69;5094222;28;20536;-83
2023/06/07 04:14:11;;;;;;;15.90;6.88;;;;;;;10.36;100.00;102298.38;5094091;28;20032;-82
2023/06/07 04:16:36;;;;;;;18.50;6.50;;;;;;;10.36;100.00;102292.16;5093422;28;20069;-83
2023/06/07 04:19:02;;;;;;;17.40;6.50;;;;;;;10.38;100.00;102290.28;5059016;28;20384;-83
2023/06/07 04:21:27;;;;;;;13.52;5.57;;;;;;;10.40;100.00;102291.88;5094173;28;20028;-82
2023/06/07 04:23:53;;;;;;;13.35;5.93;;;;;;;10.41;100.00;102292.72;5093797;28;20452;-82
2023/06/07 04:26:21;;;;;;;20.25;6.78;;;;;;;10.45;100.00;102296.03;5093322;28;20042;-83
2023/06/07 04:28:49;;;;;;;21.00;6.78;;;;;;;10.46;100.00;102295.94;5093747;28;20391;-83
2023/06/07 04:31:15;;;;;;;20.55;7.25;;;;;;;10.52;100.00;102302.66;5093396;28;20456;-82
2023/06/07 04:33:45;;;;;;;18.33;6.00;;;;;;;10.55;100.00;102291.78;5093894;28;20036;-83
2023/06/07 04:36:11;;;;;;;18.27;6.10;;;;;;;10.62;100.00;102297.56;5093549;28;20467;-82
2023/06/07 04:38:37;;;;;;;11.75;6.00;;;;;;;10.65;100.00;102298.22;5093386;28;20032;-83
2023/06/07 04:41:06;;;;;;;18.42;5.93;;;;;;;10.69;100.00;102298.84;5075348;28;20122;-82
2023/06/07 04:43:36;;;;;;;10.75;5.28;;;;;;;10.73;100.00;102297.69;5092879;28;20484;-82
2023/06/07 04:46:01;;;;;;;15.48;5.95;;;;;;;10.76;100.00;102294.81;5095115;28;20051;-81
2023/06/07 04:48:27;;;;;;;19.83;5.85;;;;;;;10.80;100.00;102301.63;5078802;28;20032;-82
2023/06/07 04:51:03;;;;;;;12.68;5.30;;;;;;;10.85;100.00;102307.50;5079029;28;20036;-82
2023/06/07 04:53:34;;;;;;;11.60;5.40;;;;;;;10.89;100.00;102303.66;5097449;28;20051;-82
2023/06/07 04:55:59;;;;;;;25.80;5.85;;;;;;;10.87;100.00;102302.09;5097159;28;20024;-81
2023/06/07 04:58:25;;;;;;;14.13;5.75;;;;;;;10.92;100.00;102311.44;5097084;28;20384;-83
2023/06/07 05:00:51;;;;;;;14.60;5.32;;;;;;;10.97;100.00;102304.94;5097098;28;20381;-83
2023/06/07 05:03:21;;;;;;;15.80;6.20;;;;;;;11.04;100.00;102311.56;5096708;28;20034;-82
2023/06/07 05:05:48;;;;;;;13.50;6.30;;;;;;;11.09;100.00;102301.44;5096776;28;20105;-83
2023/06/07 05:08:14;;;;;;;15.02;5.57;;;;;;;11.13;100.00;102300.25;5097248;28;20032;-84
2023/06/07 05:10:40;;;;;;;17.20;5.25;;;;;;;11.17;100.00;102304.41;5096348;28;20026;-80
2023/06/07 05:13:05;;;;;;;16.20;5.25;;;;;;;11.19;100.00;102304.31;5096731;28;20115;-81
2023/06/07 05:15:31;;;;;;;18.60;5.45;;;;;;;11.20;100.00;102303.38;5097305;28;20032;-82
2023/06/07 05:17:58;;;;;;;18.02;5.00;;;;;;;11.25;100.00;102301.22;5096488;28;20032;-81
2023/06/07 05:20:27;;;;;;;11.35;5.25;;;;;;;11.33;100.00;102306.88;5096860;28;20372;-81
2023/06/07 05:22:53;;;;;;;13.07;6.05;;;;;;;11.43;100.00;102310.56;5077846;28;20028;-80
2023/06/07 05:25:18;;;;;;;10.90;4.60;;;;;;;11.56;100.00;102315.03;5097637;28;20084;-82
2023/06/07 05:27:43;;;;;;;20.30;4.97;;;;;;;11.62;100.00;102311.94;5097594;28;20073;-80
2023/06/07 05:30:09;;;;;;;18.63;9.07;;;;;;;11.72;100.00;102314.78;5096124;28;20032;-82
2023/06/07 05:32:36;;;;;;;15.27;6.38;;;;;;;11.81;100.00;102306.97;5096192;28;20032;-81
2023/06/07 05:35:03;;;;;;;13.05;4.43;;;;;;;11.89;100.00;102311.75;5097953;28;20028;-83
2023/06/07 05:37:29;;;;;;;15.80;5.25;;;;;;;11.95;100.00;102307.81;5096490;28;20180;-82
2023/06/07 05:39:55;;;;;;;15.02;4.53;;;;;;;12.04;100.00;102307.13;5096419;28;20032;-82
2023/06/07 05:42:21;;;;;;;13.27;4.22;;;;;;;12.12;100.00;102306.56;5078033;28;20055;-82
2023/06/07 05:44:47;;;;;;;11.25;4.30;;;;;;;12.20;100.00;102303.34;5096034;28;20084;-82
2023/06/07 05:47:13;;;;;;;13.32;4.72;;;;;;;12.24;100.00;102310.16;5096255;28;20035;-81
2023/06/07 05:49:38;;;;;;;15.73;4.38;;;;;;;12.19;100.00;102307.81;5096050;28;20043;-85
2023/06/07 05:52:05;;;;;;;14.07;4.75;;;;;;;12.14;100.00;102313.50;5099387;28;20042;-83
2023/06/07 05:54:30;;;;;;;13.88;4.75;;;;;;;12.13;100.00;102308.28;5097090;28;20036;-83
2023/06/07 05:56:56;;;;;;;12.93;4.95;;;;;;;12.12;100.00;102304.78;5094843;28;20078;-83
2023/06/07 05:59:21;;;;;;;17.40;5.50;;;;;;;12.11;100.00;102304.88;5095888;28;20467;-84
2023/06/07 06:01:46;;;;;;;11.32;3.88;;;;;;;12.13;100.00;102321.63;5077717;28;20036;-87
2023/06/07 06:04:12;;;;;;;15.57;4.30;;;;;;;12.14;100.00;102312.66;5095733;28;20067;-86
2023/06/07 06:06:38;;;;;;;15.13;5.18;;;;;;;12.18;100.00;102322.13;5095466;28;20536;-82
2023/06/07 06:09:05;;;;;;;10.13;4.05;;;;;;;12.25;100.00;102314.53;5095482;28;20028;-83
2023/06/07 06:11:30;;;;;;;17.33;4.40;;;;;;;12.43;100.00;102317.63;5095125;28;20047;-87
2023/06/07 06:13:56;;;;;;;16.35;4.32;;;;;;;12.64;100.00;102318.66;5095240;28;20032;-83
2023/06/07 06:16:21;;;;;;;17.40;4.18;;;;;;;12.71;100.00;102308.38;5095239;28;20060;-83
2023/06/07 06:18:47;;;;;;;15.48;3.92;;;;;;;12.86;100.00;102315.22;5095418;28;20024;-84
2023/06/07 06:21:12;;;;;;;18.13;4.15;;;;;;;12.97;100.00;102317.09;5095704;28;20055;-86
2023/06/07 06:23:38;;;;;;;11.85;4.30;;;;;;;13.01;100.00;102309.66;5095205;28;20031;-83
2023/06/07 06:26:04;;;;;;;15.07;4.03;;;;;;;12.95;100.00;102310.97;5095550;28;20032;-80
2023/06/07 06:28:29;;;;;;;12.45;4.30;;;;;;;13.16;100.00;102316.47;5095197;28;20028;-85
2023/06/07 06:30:55;;;;;;;14.48;4.15;;;;;;;13.27;100.00;102321.00;5095267;28;20111;-83
2023/06/07 06:33:21;;;;;;;11.25;3.78;;;;;;;13.36;100.00;102314.09;5095474;28;20063;-86
2023/06/07 06:35:47;;;;;;;16.40;4.00;;;;;;;13.58;100.00;102319.44;5096343;28;20034;-81
2023/06/07 06:38:13;;;;;;;13.13;3.83;;;;;;;13.76;100.00;102316.25;5095937;28;20035;-86
2023/06/07 06:40:39;;;;;;;13.90;3.55;;;;;;;13.73;100.00;102325.41;5095004;28;20052;-86
2023/06/07 06:43:05;;;;;;;12.98;3.95;;;;;;;13.79;100.00;102326.69;5095984;28;20024;-83
2023/06/07 06:45:30;;;;;;;10.20;3.63;;;;;;;13.93;100.00;102322.91;5077912;28;20126;-84
2023/06/07 06:47:58;;;;;;;15.32;4.32;;;;;;;14.06;100.00;102322.75;5097553;28;20028;-83
2023/06/07 06:50:23;;;;;;;17.23;4.32;;;;;;;14.19;100.00;102331.47;5095834;28;20078;-85
2023/06/07 06:52:49;;;;;;;16.40;4.20;;;;;;;14.14;100.00;102336.38;5103480;28;20035;-89
2023/06/07 06:55:14;;;;;;;12.35;4.13;;;;;;;14.08;100.00;102335.03;5078178;28;20062;-86
2023/06/07 06:57:40;;;;;;;11.73;4.05;;;;;;;14.04;100.00;102330.91;5094494;28;20388;-86
2023/06/07 07:00:11;;;;;;;10.15;4.20;;;;;;;14.17;100.00;102333.44;5095133;28;20061;-84
2023/06/07 07:02:36;;;;;;;;;;;;;;;14.41;100.00;102337.75;5094962;28;20024;-85
2023/06/07 07:05:05;;;;;;;14.48;4.38;;;;;;;14.53;100.00;102330.50;5093867;28;19916;-80
2023/06/07 07:07:30;;;;;;;16.65;4.43;;;;;;;14.75;100.00;102334.91;5076090;28;20035;-83
2023/06/07 07:09:56;;;;;;;11.35;3.55;;;;;;;14.99;100.00;102335.50;5093772;28;20521;-83
2023/06/07 07:12:21;;;;;;;14.48;4.25;;;;;;;14.95;100.00;102333.22;5075846;28;20028;-82
2023/06/07 07:14:47;;;;;;;8.77;3.42;;;;;;;14.92;100.00;102333.50;5093861;28;20059;-82
2023/06/07 07:17:13;;;;;;;13.80;4.10;;;;;;;15.03;100.00;102327.22;5094200;28;20040;-84
2023/06/07 07:19:38;;;;;;;12.57;3.80;;;;;;;15.07;100.00;102334.00;5094174;28;20161;-85
2023/06/07 07:22:04;;;;;;;16.80;3.83;;;;;;;15.21;100.00;102338.16;5094213;28;20035;-76
2023/06/07 07:24:30;;;;;;;9.30;3.40;;;;;;;15.35;100.00;102335.16;5093905;28;20088;-80
2023/06/07 07:26:55;;;;;;;14.63;3.58;;;;;;;15.47;100.00;102330.53;5093571;28;20035;-80
2023/06/07 07:29:21;;;;;;;11.07;3.50;;;;;;;15.63;100.00;102330.88;5093574;28;20399;-79
2023/06/07 07:31:46;;;;;;;9.90;3.20;;;;;;;15.82;100.00;102329.25;5093583;28;20032;-76
2023/06/07 07:34:12;;;;;;;17.33;3.92;;;;;;;15.99;100.00;102335.81;5093257;28;20115;-75
2023/06/07 07:36:38;;;;;;;11.23;3.67;;;;;;;16.19;100.00;102337.53;5093522;28;20024;-82
2023/06/07 07:39:06;;;;;;;11.20;3.33;;;;;;;16.40;100.00;102326.66;5093768;28;20107;-80
2023/06/07 07:41:32;;;;;;;13.43;3.28;;;;;;;16.61;100.00;102335.56;5093420;28;20032;-81
2023/06/07 07:43:58;;;;;;;14.18;3.58;;;;;;;16.81;100.00;102337.25;5093387;28;20114;-80
2023/06/07 07:46:23;;;;;;;10.65;3.50;;;;;;;16.79;100.00;102336.53;5093743;28;20038;-80
2023/06/07 07:48:49;;;;;;;13.25;3.47;;;;;;;16.78;100.00;102337.53;5093338;28;20032;-79
2023/06/07 07:51:14;;;;;;;11.82;4.18;;;;;;;16.89;100.00;102337.38;5075003;28;20503;-82
2023/06/07 07:53:42;;;;;;;13.48;4.00;;;;;;;16.71;100.00;102339.94;5093349;28;20032;-78
2023/06/07 07:56:07;;;;;;;12.30;3.65;;;;;;;16.72;100.00;102346.19;5093973;28;20032;-83
2023/06/07 07:58:33;;;;;;;10.30;3.83;;;;;;;16.73;100.00;102343.34;5093557;28;20468;-77
2023/06/07 08:00:58;;;;;;;18.38;4.28;;;;;;;16.71;100.00;102339.09;5093806;28;20032;-75
2023/06/07 08:03:23;;;;;;;13.27;3.40;;;;;;;16.93;100.00;102335.28;5093650;28;20024;-76
2023/06/07 08:05:49;;;;;;;11.32;3.67;;;;;;;16.92;100.00;102328.19;5093399;28;20086;-75
2023/06/07 08:08:16;;;;;;;13.45;3.80;;;;;;;16.96;100.00;102332.28;5093271;28;20028;-75
2023/06/07 08:10:42;;;;;;;10.02;3.80;;;;;;;16.92;100.00;102331.72;5075211;28;20459;-76
2023/06/07 08:13:07;;;;;;;17.20;4.43;;;;;;;17.08;100.00;102333.81;5093254;28;20106;-74
2023/06/07 08:15:33;;;;;;;9.63;3.10;;;;;;;17.46;100.00;102339.19;5092930;28;20035;-75
2023/06/07 08:17:58;;;;;;;17.90;3.63;;;;;;;17.86;100.00;102338.00;5093137;28;20051;-77
2023/06/07 08:20:23;;;;;;;14.27;3.70;;;;;;;18.11;100.00;102331.09;5092519;28;20032;-78
2023/06/07 08:22:50;;;;;;;15.43;3.88;;;;;;;18.29;100.00;102333.78;5093379;28;20063;-74
2023/06/07 08:25:16;;;;;;;10.27;3.72;;;;;;;18.45;100.00;102333.09;5093114;28;20036;-75
2023/06/07 08:27:42;;;;;;;12.75;3.63;;;;;;;18.47;100.00;102327.53;5093087;28;20060;-72
2023/06/07 08:30:08;;;;;;;12.80;3.92;;;;;;;18.61;100.00;102324.28;5092768;28;20456;-79
2023/06/07 08:32:33;;;;;;;12.70;4.13;;;;;;;18.66;100.00;102319.28;5093310;28;20036;-80
2023/06/07 08:34:59;;;;;;;10.52;3.63;;;;;;;18.82;100.00;102318.56;5093487;28;20047;-82
2023/06/07 08:37:24;;;;;;;13.05;3.78;;;;;;;18.79;100.00;102321.53;5093266;28;20112;-80
2023/06/07 08:39:50;;;;;;;8.48;3.13;;;;;;;18.70;100.00;102324.34;5093657;28;20060;-79
2023/06/07 08:42:15;;;;;;;9.60;3.65;;;;;;;18.82;100.00;102306.91;5093208;28;20043;-80
2023/06/07 08:44:41;;;;;;;11.57;3.33;;;;;;;19.03;100.00;102309.28;5093525;28;20027;-81
2023/06/07 08:47:08;;;;;;;11.02;3.30;;;;;;;19.00;100.00;102309.59;5093316;28;20107;-80
2023/06/07 08:49:33;;;;;;;11.43;3.65;;;;;;;19.11;100.00;102314.72;5093470;28;20092;-81
2023/06/07 08:52:02;;;;;;;13.60;4.05;;;;;;;19.13;100.00;102319.97;5093256;28;20410;-80
2023/06/07 08:54:29;;;;;;;15.73;4.53;;;;;;;19.25;100.00;102313.28;5093190;28;20130;-81
2023/06/07 08:56:55;;;;;;;12.65;3.35;;;;;;;19.58;100.00;102315.28;5093391;28;20085;-78
2023/06/07 08:59:24;;;;;;;12.23;4.03;;;;;;;19.86;99.46;102321.31;5093070;28;20594;-81
2023/06/07 09:01:52;;;;;;;14.30;3.67;;;;;;;20.04;100.00;102319.31;5093385;28;20039;-83
2023/06/07 09:04:17;;;;;;;14.60;3.92;;;;;;;20.29;88.42;102311.25;5093781;28;20430;-81
2023/06/07 09:06:43;;;;;;;14.50;3.60;;;;;;;20.75;90.82;102317.03;5092907;28;20047;-79
2023/06/07 09:09:08;;;;;;;12.57;3.90;;;;;;;20.85;80.91;102322.22;5074710;28;20384;-82
2023/06/07 09:11:34;;;;;;;14.02;4.43;;;;;;;21.06;77.18;102324.38;5093667;28;20032;-81
2023/06/07 09:14:00;;;;;;;12.90;3.83;;;;;;;21.63;74.97;102325.25;5074704;28;20032;-78
2023/06/07 09:16:26;;;;;;;11.65;3.60;;;;;;;21.74;74.86;102324.84;5092553;28;20035;-80
2023/06/07 09:18:55;;;;;;;14.73;3.95;;;;;;;21.37;73.73;102320.91;5093028;28;20521;-80
2023/06/07 09:21:21;;;;;;;12.68;3.70;;;;;;;21.85;80.53;102318.19;5092207;28;20537;-77
2023/06/07 09:23:47;;;;;;;14.75;4.32;;;;;;;22.25;80.99;102318.94;5075060;28;20054;-76
2023/06/07 09:26:14;;;;;;;12.90;3.83;;;;;;;22.51;67.98;102315.91;5092574;28;20020;-78
2023/06/07 09:28:40;;;;;;;13.40;3.70;;;;;;;22.56;74.20;102315.34;5092488;28;20036;-83
2023/06/07 09:31:06;;;;;;;16.15;4.57;;;;;;;22.51;70.82;102312.31;5092776;28;20027;-81
2023/06/07 09:33:35;;;;;;;10.35;3.58;;;;;;;22.44;74.54;102304.09;5097341;28;20032;-84
2023/06/07 09:36:12;;;;;;;12.88;3.80;;;;;;;22.31;67.40;102307.41;5096324;28;20593;-82
2023/06/07 09:38:38;;;;;;;9.90;3.83;;;;;;;22.32;71.63;102311.81;5096235;28;20039;-82
2023/06/07 09:41:05;;;;;;;11.38;3.38;;;;;;;22.19;74.05;102312.38;5096027;28;20586;-82
2023/06/07 09:43:49;;;;;;;14.15;4.28;;;;;;;22.47;62.65;102308.31;5095868;28;20388;-82
2023/06/07 09:46:15;;;;;;;12.65;3.95;;;;;;;22.63;67.49;102305.44;5096057;28;20528;-83
2023/06/07 09:48:51;;;;;;;12.60;3.85;;;;;;;22.42;62.81;102306.13;5077991;28;20032;-83
2023/06/07 09:51:20;;;;;;;9.07;3.80;;;;;;;22.72;71.46;102303.47;5095887;28;20035;-83
2023/06/07 09:54:12;;;;;;;15.35;3.65;;;;;;;22.94;63.62;102299.00;5096309;28;20043;-82
2023/06/07 09:56:40;;;;;;;11.10;4.00;;;;;;;23.10;58.67;102298.03;5091553;28;20098;-85
2023/06/07 09:59:14;;;;;;;8.80;3.95;;;;;;;23.00;59.64;102294.72;5077737;28;20048;-84
2023/06/07 10:01:45;;;;;;;14.40;4.20;;;;;;;23.11;61.97;102291.59;5096795;28;20085;-83
2023/06/07 10:04:11;;;;;;;16.23;3.92;;;;;;;23.41;62.25;102305.16;5078014;28;20080;-83
2023/06/07 10:06:40;;;;;;;13.02;4.47;;;;;;;23.47;58.91;102298.09;5078698;28;20024;-83
2023/06/07 10:09:06;;;;;;;14.48;3.88;;;;;;;23.75;62.82;102303.66;5095855;28;20028;-83
2023/06/07 10:11:34;;;;;;;10.88;4.05;;;;;;;23.80;59.37;102295.78;5078621;28;20039;-84
2023/06/07 10:14:10;;;;;;;9.73;3.83;;;;;;;23.77;57.46;102305.16;5096552;28;20038;-83
2023/06/07 10:16:39;;;;;;;12.73;4.53;;;;;;;23.93;58.55;102295.97;5078148;28;20436;-83
2023/06/07 10:19:15;;;;;;;12.98;4.25;;;;;;;24.20;59.04;102292.63;5077383;28;20036;-85
2023/06/07 10:21:44;;;;;;;15.63;4.00;;;;;;;24.38;57.15;102293.03;5077337;28;20360;-84
2023/06/07 10:24:13;;;;;;;10.98;4.22;;;;;;;24.54;55.66;102286.47;5095117;28;20059;-84
2023/06/07 10:26:52;;;;;;;13.70;4.20;;;;;;;24.92;53.79;102291.56;5095918;28;20139;-82
2023/06/07 10:29:32;;;;;;;12.10;3.95;;;;;;;24.97;54.70;102289.06;5095544;28;20069;-81
2023/06/07 10:32:24;;;;;;;16.73;4.55;;;;;;;25.20;56.03;102289.84;5096110;28;20134;-83
2023/06/07 10:34:52;;;;;;;10.77;4.22;;;;;;;25.39;52.63;102280.94;5095047;28;20024;-81
2023/06/07 10:37:19;;;;;;;11.85;4.82;;;;;;;25.39;49.71;102282.84;5076844;28;20421;-82
2023/06/07 10:39:46;;;;;;;11.32;4.25;;;;;;;25.56;51.28;102283.31;5095090;28;20062;-83
2023/06/07 10:42:12;;;;;;;10.80;3.75;;;;;;;25.73;53.99;102279.19;5094894;28;20089;-83
2023/06/07 10:44:38;;;;;;;15.73;4.80;;;;;;;26.10;50.23;102276.97;5075808;28;20058;-84
2023/06/07 10:47:21;;;;;;;12.23;3.63;;;;;;;26.19;47.79;102275.72;5094796;28;20484;-84
2023/06/07 10:49:48;;;;;;;14.32;4.03;;;;;;;26.47;48.04;102276.53;5095153;28;20408;-84
2023/06/07 10:52:15;;;;;;;11.45;4.68;;;;;;;26.36;47.15;102267.13;5094542;28;20032;-83
2023/06/07 10:54:42;;;;;;;12.10;3.50;;;;;;;26.83;49.46;102253.47;5076373;28;20050;-82
2023/06/07 10:57:08;;;;;;;13.38;3.80;;;;;;;27.38;47.18;102259.38;5094530;28;20081;-83
2023/06/07 10:59:35;;;;;;;13.15;4.28;;;;;;;27.54;45.26;102258.00;5073085;28;20076;-84
2023/06/07 11:02:23;;;;;;;10.05;3.80;;;;;;;28.02;44.40;102253.97;5074824;28;20051;-84
2023/06/07 11:04:50;;;;;;;9.60;4.10;;;;;;;28.38;44.73;102255.13;5074421;28;20381;-84
2023/06/07 11:07:22;;;;;;;11.48;3.90;;;;;;;28.39;42.26;102247.75;5074292;28;20025;-83
2023/06/07 11:10:04;;;;;;;12.73;4.05;;;;;;;28.64;42.98;102251.31;5074333;28;20027;-85
2023/06/07 11:12:35;;;;;;;10.80;4.03;;;;;;;28.87;40.20;102249.81;5074381;28;20444;-85
2023/06/07 11:15:25;;;;;;;12.30;4.28;;;;;;;28.66;40.98;102257.44;5074635;28;20032;-86